sensor_id;sensor_type;location;lat;lon;timestamp;pressure;altitude;pressure_sealevel;temperature;humidity
33625;BME280;19962;47.820;1.930;2023-02-26T00:01:14;100239.75;;;7.61;61.10
33625;BME280;19962;47.820;1.930;2023-02-26T00:03:41;100250.66;;;7.61;61.61
33625;BME280;19962;47.820;1.930;2023-02-26T00:06:07;100251.78;;;7.47;61.33
33625;BME280;19962;47.820;1.930;2023-02-26T00:08:34;100249.25;;;7.52;61.40
33625;BME280;19962;47.820;1.930;2023-02-26T00:11:00;100256.16;;;7.55;60.88
33625;BME280;19962;47.820;1.930;2023-02-26T00:13:28;100258.28;;;7.53;60.75
33625;BME280;19962;47.820;1.930;2023-02-26T00:16:01;100256.56;;;7.58;60.89
33625;BME280;19962;47.820;1.930;2023-02-26T00:18:27;100248.63;;;7.50;60.97
33625;BME280;19962;47.820;1.930;2023-02-26T00:20:54;100261.69;;;7.42;60.79
33625;BME280;19962;47.820;1.930;2023-02-26T00:23:21;100269.47;;;7.38;61.04
33625;BME280;19962;47.820;1.930;2023-02-26T00:25:48;100270.88;;;7.47;61.43
33625;BME280;19962;47.820;1.930;2023-02-26T00:28:14;100273.25;;;7.37;61.52
33625;BME280;19962;47.820;1.930;2023-02-26T00:30:41;100268.78;;;7.56;61.48
33625;BME280;19962;47.820;1.930;2023-02-26T00:33:07;100263.66;;;7.66;61.00
33625;BME280;19962;47.820;1.930;2023-02-26T00:35:34;100272.06;;;7.64;60.74
33625;BME280;19962;47.820;1.930;2023-02-26T00:38:04;100270.94;;;7.34;60.93
33625;BME280;19962;47.820;1.930;2023-02-26T00:40:46;100273.88;;;7.39;60.18
33625;BME280;19962;47.820;1.930;2023-02-26T00:43:18;100272.66;;;7.35;60.22
33625;BME280;19962;47.820;1.930;2023-02-26T00:49:37;100277.97;;;7.61;59.39
33625;BME280;19962;47.820;1.930;2023-02-26T00:52:00;100270.16;;;7.71;58.96
33625;BME280;19962;47.820;1.930;2023-02-26T00:54:28;100271.69;;;7.61;58.50
33625;BME280;19962;47.820;1.930;2023-02-26T00:56:56;100270.75;;;7.36;59.20
33625;BME280;19962;47.820;1.930;2023-02-26T00:59:24;100271.53;;;7.49;59.52
33625;BME280;19962;47.820;1.930;2023-02-26T01:01:50;100266.78;;;7.69;59.51
33625;BME280;19962;47.820;1.930;2023-02-26T01:04:20;100270.88;;;7.54;59.37
33625;BME280;19962;47.820;1.930;2023-02-26T01:06:55;100277.88;;;7.74;59.01
33625;BME280;19962;47.820;1.930;2023-02-26T01:09:36;100273.28;;;7.75;58.45
33625;BME280;19962;47.820;1.930;2023-02-26T01:12:11;100284.84;;;7.70;58.14
33625;BME280;19962;47.820;1.930;2023-02-26T01:14:43;100279.38;;;7.70;58.11
33625;BME280;19962;47.820;1.930;2023-02-26T01:19:40;100273.13;;;7.63;58.13
33625;BME280;19962;47.820;1.930;2023-02-26T01:22:45;100282.69;;;7.41;56.11
33625;BME280;19962;47.820;1.930;2023-02-26T01:25:28;100277.63;;;7.45;57.03
33625;BME280;19962;47.820;1.930;2023-02-26T01:27:55;100287.56;;;7.33;57.46
33625;BME280;19962;47.820;1.930;2023-02-26T01:30:23;100284.84;;;7.33;57.99
33625;BME280;19962;47.820;1.930;2023-02-26T01:49:03;100297.06;;;7.11;58.11
33625;BME280;19962;47.820;1.930;2023-02-26T01:51:50;100299.81;;;7.11;57.28
33625;BME280;19962;47.820;1.930;2023-02-26T01:54:20;100303.56;;;7.03;57.29
33625;BME280;19962;47.820;1.930;2023-02-26T01:56:53;100309.47;;;7.07;56.84
33625;BME280;19962;47.820;1.930;2023-02-26T01:59:21;100305.94;;;6.87;56.85
33625;BME280;19962;47.820;1.930;2023-02-26T02:01:51;100299.41;;;6.81;57.66
33625;BME280;19962;47.820;1.930;2023-02-26T02:04:18;100300.47;;;6.93;58.11
33625;BME280;19962;47.820;1.930;2023-02-26T02:06:45;100297.53;;;6.88;57.99
33625;BME280;19962;47.820;1.930;2023-02-26T02:09:12;100308.66;;;6.67;57.98
33625;BME280;19962;47.820;1.930;2023-02-26T02:14:57;100304.06;;;6.74;57.59
33625;BME280;19962;47.820;1.930;2023-02-26T02:23:39;100309.31;;;6.63;55.80
33625;BME280;19962;47.820;1.930;2023-02-26T02:31:32;100313.91;;;6.62;57.27
33625;BME280;19962;47.820;1.930;2023-02-26T02:34:10;100321.88;;;6.70;56.32
33625;BME280;19962;47.820;1.930;2023-02-26T02:36:43;100329.44;;;6.42;57.06
33625;BME280;19962;47.820;1.930;2023-02-26T02:39:29;100325.63;;;6.17;56.48
33625;BME280;19962;47.820;1.930;2023-02-26T02:44:45;100329.00;;;6.45;57.25
33625;BME280;19962;47.820;1.930;2023-02-26T02:47:14;100336.56;;;6.50;57.31
33625;BME280;19962;47.820;1.930;2023-02-26T02:49:48;100333.22;;;6.28;56.37
33625;BME280;19962;47.820;1.930;2023-02-26T02:52:41;100345.75;;;6.16;57.61
33625;BME280;19962;47.820;1.930;2023-02-26T02:55:13;100344.69;;;6.04;57.05
33625;BME280;19962;47.820;1.930;2023-02-26T02:57:43;100344.81;;;5.83;56.80
33625;BME280;19962;47.820;1.930;2023-02-26T03:00:13;100353.44;;;5.87;57.94
33625;BME280;19962;47.820;1.930;2023-02-26T03:05:28;100354.06;;;5.95;57.63
33625;BME280;19962;47.820;1.930;2023-02-26T03:08:05;100351.56;;;6.00;57.47
33625;BME280;19962;47.820;1.930;2023-02-26T03:10:34;100354.97;;;6.09;57.38
33625;BME280;19962;47.820;1.930;2023-02-26T03:13:00;100370.00;;;5.92;57.54
33625;BME280;19962;47.820;1.930;2023-02-26T03:18:25;100375.25;;;5.93;56.38
33625;BME280;19962;47.820;1.930;2023-02-26T03:21:11;100377.81;;;5.67;56.76
33625;BME280;19962;47.820;1.930;2023-02-26T03:27:05;100375.81;;;5.82;56.42
33625;BME280;19962;47.820;1.930;2023-02-26T03:29:39;100377.97;;;5.93;56.87
33625;BME280;19962;47.820;1.930;2023-02-26T03:32:13;100371.66;;;5.93;56.79
33625;BME280;19962;47.820;1.930;2023-02-26T03:35:02;100381.63;;;5.32;56.49
33625;BME280;19962;47.820;1.930;2023-02-26T03:37:40;100372.19;;;5.28;57.80
33625;BME280;19962;47.820;1.930;2023-02-26T03:40:17;100385.56;;;5.23;57.30
33625;BME280;19962;47.820;1.930;2023-02-26T03:42:51;100384.31;;;5.26;56.44
33625;BME280;19962;47.820;1.930;2023-02-26T03:45:29;100380.53;;;5.27;57.52
33625;BME280;19962;47.820;1.930;2023-02-26T03:47:58;100376.66;;;5.42;57.32
33625;BME280;19962;47.820;1.930;2023-02-26T03:50:36;100378.69;;;5.74;56.50
33625;BME280;19962;47.820;1.930;2023-02-26T03:53:08;100385.94;;;5.54;56.72
33625;BME280;19962;47.820;1.930;2023-02-26T03:55:40;100387.63;;;5.62;56.77
33625;BME280;19962;47.820;1.930;2023-02-26T03:58:07;100390.56;;;5.60;56.37
33625;BME280;19962;47.820;1.930;2023-02-26T04:00:35;100380.81;;;5.79;56.05
33625;BME280;19962;47.820;1.930;2023-02-26T04:03:07;100389.72;;;5.60;55.63
33625;BME280;19962;47.820;1.930;2023-02-26T04:05:38;100397.91;;;5.60;56.24
33625;BME280;19962;47.820;1.930;2023-02-26T04:08:07;100386.53;;;5.50;56.06
33625;BME280;19962;47.820;1.930;2023-02-26T04:10:52;100399.09;;;5.51;56.07
33625;BME280;19962;47.820;1.930;2023-02-26T04:13:19;100406.41;;;5.50;56.00
33625;BME280;19962;47.820;1.930;2023-02-26T04:15:45;100410.16;;;5.43;55.40
33625;BME280;19962;47.820;1.930;2023-02-26T04:18:12;100412.06;;;5.49;55.46
33625;BME280;19962;47.820;1.930;2023-02-26T04:20:38;100418.97;;;5.51;55.77
33625;BME280;19962;47.820;1.930;2023-02-26T04:23:04;100420.31;;;5.68;55.78
33625;BME280;19962;47.820;1.930;2023-02-26T04:25:30;100431.31;;;5.81;55.60
33625;BME280;19962;47.820;1.930;2023-02-26T04:27:56;100439.50;;;5.88;55.76
33625;BME280;19962;47.820;1.930;2023-02-26T04:30:22;100434.75;;;5.62;55.76
33625;BME280;19962;47.820;1.930;2023-02-26T04:32:48;100445.91;;;5.40;55.47
33625;BME280;19962;47.820;1.930;2023-02-26T04:35:15;100440.91;;;5.43;55.39
33625;BME280;19962;47.820;1.930;2023-02-26T04:37:41;100439.59;;;5.33;55.73
33625;BME280;19962;47.820;1.930;2023-02-26T04:40:07;100442.84;;;5.49;55.64
33625;BME280;19962;47.820;1.930;2023-02-26T04:42:34;100452.22;;;4.64;55.06
33625;BME280;19962;47.820;1.930;2023-02-26T04:45:00;100445.66;;;5.07;56.20
33625;BME280;19962;47.820;1.930;2023-02-26T04:47:26;100449.53;;;5.19;56.13
33625;BME280;19962;47.820;1.930;2023-02-26T04:49:52;100452.78;;;5.36;56.84
33625;BME280;19962;47.820;1.930;2023-02-26T04:52:18;100449.19;;;5.63;55.90
33625;BME280;19962;47.820;1.930;2023-02-26T04:54:44;100458.97;;;5.51;55.18
33625;BME280;19962;47.820;1.930;2023-02-26T04:57:10;100459.56;;;5.46;55.59
33625;BME280;19962;47.820;1.930;2023-02-26T04:59:36;100456.44;;;5.49;55.51
33625;BME280;19962;47.820;1.930;2023-02-26T05:02:04;100458.41;;;5.34;55.43
33625;BME280;19962;47.820;1.930;2023-02-26T05:04:31;100471.47;;;5.45;55.25
33625;BME280;19962;47.820;1.930;2023-02-26T05:06:57;100456.16;;;5.38;55.39
33625;BME280;19962;47.820;1.930;2023-02-26T05:09:23;100457.44;;;5.42;55.12
33625;BME280;19962;47.820;1.930;2023-02-26T05:11:50;100462.19;;;5.33;55.30
33625;BME280;19962;47.820;1.930;2023-02-26T05:14:16;100468.00;;;5.24;55.12
33625;BME280;19962;47.820;1.930;2023-02-26T05:16:42;100464.66;;;5.01;55.58
33625;BME280;19962;47.820;1.930;2023-02-26T05:19:08;100477.56;;;4.92;55.02
33625;BME280;19962;47.820;1.930;2023-02-26T05:21:35;100478.72;;;5.04;55.32
33625;BME280;19962;47.820;1.930;2023-02-26T05:24:01;100478.19;;;4.94;55.17
33625;BME280;19962;47.820;1.930;2023-02-26T05:26:27;100475.31;;;5.02;55.30
33625;BME280;19962;47.820;1.930;2023-02-26T05:28:53;100477.94;;;4.89;54.99
33625;BME280;19962;47.820;1.930;2023-02-26T05:31:19;100478.00;;;4.96;54.84
33625;BME280;19962;47.820;1.930;2023-02-26T05:33:45;100472.22;;;5.05;55.24
33625;BME280;19962;47.820;1.930;2023-02-26T05:36:12;100488.72;;;5.04;55.48
33625;BME280;19962;47.820;1.930;2023-02-26T05:38:38;100486.31;;;5.15;55.22
33625;BME280;19962;47.820;1.930;2023-02-26T05:41:04;100490.75;;;4.95;55.02
33625;BME280;19962;47.820;1.930;2023-02-26T05:43:31;100491.13;;;4.92;55.03
33625;BME280;19962;47.820;1.930;2023-02-26T05:45:58;100490.03;;;5.08;55.42
33625;BME280;19962;47.820;1.930;2023-02-26T05:48:25;100489.81;;;5.30;55.11
33625;BME280;19962;47.820;1.930;2023-02-26T05:50:51;100498.91;;;4.95;54.89
33625;BME280;19962;47.820;1.930;2023-02-26T05:53:17;100501.38;;;4.90;55.44
33625;BME280;19962;47.820;1.930;2023-02-26T05:55:44;100511.72;;;4.59;55.61
33625;BME280;19962;47.820;1.930;2023-02-26T05:58:10;100503.06;;;4.70;55.53
33625;BME280;19962;47.820;1.930;2023-02-26T06:00:36;100508.75;;;4.96;55.68
33625;BME280;19962;47.820;1.930;2023-02-26T06:03:02;100503.75;;;5.00;55.63
33625;BME280;19962;47.820;1.930;2023-02-26T06:05:29;100515.84;;;5.18;55.63
33625;BME280;19962;47.820;1.930;2023-02-26T06:07:55;100503.94;;;5.19;55.49
33625;BME280;19962;47.820;1.930;2023-02-26T06:10:22;100501.94;;;5.34;55.21
33625;BME280;19962;47.820;1.930;2023-02-26T06:12:48;100507.75;;;5.04;55.09
33625;BME280;19962;47.820;1.930;2023-02-26T06:15:14;100514.38;;;5.16;55.36
33625;BME280;19962;47.820;1.930;2023-02-26T06:17:40;100506.06;;;5.24;55.37
33625;BME280;19962;47.820;1.930;2023-02-26T06:20:07;100509.81;;;5.23;55.21
33625;BME280;19962;47.820;1.930;2023-02-26T06:22:34;100507.59;;;5.33;54.89
33625;BME280;19962;47.820;1.930;2023-02-26T06:25:00;100513.13;;;5.18;55.22
33625;BME280;19962;47.820;1.930;2023-02-26T06:27:26;100514.50;;;5.08;55.15
33625;BME280;19962;47.820;1.930;2023-02-26T06:29:52;100516.66;;;4.91;55.42
33625;BME280;19962;47.820;1.930;2023-02-26T06:32:18;100527.28;;;4.86;55.67
33625;BME280;19962;47.820;1.930;2023-02-26T06:34:44;100519.50;;;4.83;55.79
33625;BME280;19962;47.820;1.930;2023-02-26T06:37:10;100519.88;;;4.80;55.46
33625;BME280;19962;47.820;1.930;2023-02-26T06:39:36;100528.03;;;4.80;55.73
33625;BME280;19962;47.820;1.930;2023-02-26T06:42:03;100529.72;;;4.81;55.64
33625;BME280;19962;47.820;1.930;2023-02-26T06:44:30;100529.19;;;4.71;55.69
33625;BME280;19962;47.820;1.930;2023-02-26T06:46:56;100523.38;;;4.95;55.94
33625;BME280;19962;47.820;1.930;2023-02-26T06:49:22;100532.25;;;5.04;55.29
33625;BME280;19962;47.820;1.930;2023-02-26T06:51:48;100533.91;;;5.05;54.77
33625;BME280;19962;47.820;1.930;2023-02-26T06:54:14;100538.53;;;5.04;55.27
33625;BME280;19962;47.820;1.930;2023-02-26T06:56:40;100548.22;;;5.13;55.30
33625;BME280;19962;47.820;1.930;2023-02-26T06:59:06;100554.22;;;4.88;55.25
33625;BME280;19962;47.820;1.930;2023-02-26T07:01:32;100554.78;;;4.62;55.88
33625;BME280;19962;47.820;1.930;2023-02-26T07:03:58;100552.50;;;4.59;55.74
33625;BME280;19962;47.820;1.930;2023-02-26T07:06:25;100562.53;;;4.44;56.45
33625;BME280;19962;47.820;1.930;2023-02-26T07:08:51;100570.94;;;4.49;56.07
33625;BME280;19962;47.820;1.930;2023-02-26T07:11:17;100569.19;;;4.42;56.46
33625;BME280;19962;47.820;1.930;2023-02-26T07:13:43;100587.31;;;4.20;56.95
33625;BME280;19962;47.820;1.930;2023-02-26T07:16:09;100574.25;;;4.30;56.87
33625;BME280;19962;47.820;1.930;2023-02-26T07:18:36;100584.22;;;4.73;56.52
33625;BME280;19962;47.820;1.930;2023-02-26T07:21:04;100587.56;;;4.75;56.45
33625;BME280;19962;47.820;1.930;2023-02-26T07:23:30;100596.22;;;4.85;55.93
33625;BME280;19962;47.820;1.930;2023-02-26T07:25:56;100591.94;;;4.76;55.76
33625;BME280;19962;47.820;1.930;2023-02-26T07:28:25;100593.25;;;4.59;56.29
33625;BME280;19962;47.820;1.930;2023-02-26T07:30:54;100594.81;;;4.68;55.96
33625;BME280;19962;47.820;1.930;2023-02-26T07:33:20;100601.19;;;4.61;56.09
33625;BME280;19962;47.820;1.930;2023-02-26T07:35:47;100599.53;;;4.81;56.09
33625;BME280;19962;47.820;1.930;2023-02-26T07:38:13;100591.69;;;5.07;55.78
33625;BME280;19962;47.820;1.930;2023-02-26T07:40:39;100600.03;;;5.05;55.43
33625;BME280;19962;47.820;1.930;2023-02-26T07:43:06;100597.94;;;4.86;55.64
33625;BME280;19962;47.820;1.930;2023-02-26T07:45:32;100599.84;;;4.71;56.04
33625;BME280;19962;47.820;1.930;2023-02-26T07:47:58;100596.03;;;4.87;56.27
33625;BME280;19962;47.820;1.930;2023-02-26T07:50:25;100594.22;;;5.08;55.89
33625;BME280;19962;47.820;1.930;2023-02-26T07:52:52;100596.69;;;5.10;55.45
33625;BME280;19962;47.820;1.930;2023-02-26T07:55:18;100600.16;;;5.18;55.53
33625;BME280;19962;47.820;1.930;2023-02-26T07:57:45;100603.50;;;5.20;55.34
33625;BME280;19962;47.820;1.930;2023-02-26T08:00:12;100607.03;;;5.35;55.13
33625;BME280;19962;47.820;1.930;2023-02-26T08:02:38;100621.91;;;5.18;55.09
33625;BME280;19962;47.820;1.930;2023-02-26T08:05:04;100615.28;;;5.06;55.64
33625;BME280;19962;47.820;1.930;2023-02-26T08:07:31;100613.63;;;5.26;55.33
33625;BME280;19962;47.820;1.930;2023-02-26T08:09:57;100605.47;;;5.26;55.09
33625;BME280;19962;47.820;1.930;2023-02-26T08:12:23;100614.66;;;5.04;55.44
33625;BME280;19962;47.820;1.930;2023-02-26T08:14:49;100618.22;;;5.26;55.30
33625;BME280;19962;47.820;1.930;2023-02-26T08:17:15;100615.69;;;5.45;55.29
33625;BME280;19962;47.820;1.930;2023-02-26T08:19:41;100614.75;;;5.59;54.81
33625;BME280;19962;47.820;1.930;2023-02-26T08:22:07;100620.94;;;5.74;54.47
33625;BME280;19962;47.820;1.930;2023-02-26T08:24:33;100623.66;;;5.47;54.42
33625;BME280;19962;47.820;1.930;2023-02-26T08:27:00;100622.16;;;5.44;54.55
33625;BME280;19962;47.820;1.930;2023-02-26T08:29:26;100621.50;;;5.63;54.28
33625;BME280;19962;47.820;1.930;2023-02-26T08:31:52;100626.56;;;5.66;54.12
33625;BME280;19962;47.820;1.930;2023-02-26T08:34:18;100625.75;;;5.72;53.87
33625;BME280;19962;47.820;1.930;2023-02-26T08:36:45;100619.00;;;5.68;53.57
33625;BME280;19962;47.820;1.930;2023-02-26T08:39:11;100628.13;;;5.54;54.02
33625;BME280;19962;47.820;1.930;2023-02-26T08:41:37;100628.13;;;5.54;53.69
33625;BME280;19962;47.820;1.930;2023-02-26T08:44:03;100628.56;;;5.58;53.64
33625;BME280;19962;47.820;1.930;2023-02-26T08:46:30;100645.72;;;5.58;53.01
33625;BME280;19962;47.820;1.930;2023-02-26T08:48:56;100643.59;;;5.54;51.96
33625;BME280;19962;47.820;1.930;2023-02-26T08:51:22;100650.00;;;5.67;53.04
33625;BME280;19962;47.820;1.930;2023-02-26T08:53:48;100648.97;;;5.47;52.12
33625;BME280;19962;47.820;1.930;2023-02-26T08:56:15;100648.44;;;5.79;52.58
33625;BME280;19962;47.820;1.930;2023-02-26T08:58:42;100650.00;;;5.67;51.58
33625;BME280;19962;47.820;1.930;2023-02-26T09:01:08;100648.97;;;5.89;51.33
33625;BME280;19962;47.820;1.930;2023-02-26T09:03:34;100655.31;;;5.75;51.36
33625;BME280;19962;47.820;1.930;2023-02-26T09:06:01;100647.91;;;5.69;51.01
33625;BME280;19962;47.820;1.930;2023-02-26T09:08:30;100655.66;;;5.87;50.81
33625;BME280;19962;47.820;1.930;2023-02-26T09:11:00;100659.31;;;5.79;50.18
33625;BME280;19962;47.820;1.930;2023-02-26T09:13:27;100667.50;;;5.79;50.09
33625;BME280;19962;47.820;1.930;2023-02-26T09:15:54;100658.81;;;5.69;49.63
33625;BME280;19962;47.820;1.930;2023-02-26T09:18:20;100668.22;;;5.88;49.51
33625;BME280;19962;47.820;1.930;2023-02-26T09:20:46;100659.25;;;5.94;48.98
33625;BME280;19962;47.820;1.930;2023-02-26T09:23:12;100671.72;;;6.09;48.98
33625;BME280;19962;47.820;1.930;2023-02-26T09:25:38;100650.91;;;6.29;48.55
33625;BME280;19962;47.820;1.930;2023-02-26T09:28:05;100673.50;;;6.23;48.52
33625;BME280;19962;47.820;1.930;2023-02-26T09:30:31;100655.56;;;6.35;48.04
33625;BME280;19962;47.820;1.930;2023-02-26T09:32:57;100662.59;;;6.23;47.62
33625;BME280;19962;47.820;1.930;2023-02-26T09:35:24;100660.53;;;6.25;47.40
33625;BME280;19962;47.820;1.930;2023-02-26T09:37:50;100660.84;;;6.43;47.35
33625;BME280;19962;47.820;1.930;2023-02-26T09:51:38;100672.94;;;6.75;45.63
33625;BME280;19962;47.820;1.930;2023-02-26T09:54:30;100677.50;;;6.61;43.97
33625;BME280;19962;47.820;1.930;2023-02-26T09:56:59;100653.47;;;6.78;45.28
33625;BME280;19962;47.820;1.930;2023-02-26T09:59:31;100670.78;;;6.57;44.18
33625;BME280;19962;47.820;1.930;2023-02-26T10:02:28;100665.59;;;6.28;42.15
33625;BME280;19962;47.820;1.930;2023-02-26T10:05:25;100673.28;;;6.52;42.90
33625;BME280;19962;47.820;1.930;2023-02-26T10:08:13;100686.81;;;6.73;43.53
33625;BME280;19962;47.820;1.930;2023-02-26T10:11:06;100683.44;;;6.71;42.40
33625;BME280;19962;47.820;1.930;2023-02-26T10:13:53;100682.91;;;6.55;40.65
33625;BME280;19962;47.820;1.930;2023-02-26T10:16:27;100677.53;;;6.68;42.64
33625;BME280;19962;47.820;1.930;2023-02-26T10:19:27;100681.34;;;6.73;40.79
33625;BME280;19962;47.820;1.930;2023-02-26T10:21:56;100687.94;;;6.98;42.89
33625;BME280;19962;47.820;1.930;2023-02-26T10:24:41;100673.88;;;6.95;41.70
33625;BME280;19962;47.820;1.930;2023-02-26T10:27:39;100667.53;;;6.81;40.03
33625;BME280;19962;47.820;1.930;2023-02-26T10:30:20;100679.75;;;6.92;42.62
33625;BME280;19962;47.820;1.930;2023-02-26T10:33:07;100680.09;;;6.76;41.06
33625;BME280;19962;47.820;1.930;2023-02-26T10:35:45;100687.13;;;6.57;41.78
33625;BME280;19962;47.820;1.930;2023-02-26T10:38:15;100686.66;;;6.47;41.75
33625;BME280;19962;47.820;1.930;2023-02-26T10:40:54;100686.31;;;6.63;42.93
33625;BME280;19962;47.820;1.930;2023-02-26T10:51:37;100714.59;;;6.56;42.35
33625;BME280;19962;47.820;1.930;2023-02-26T10:54:30;100702.50;;;6.71;42.80
33625;BME280;19962;47.820;1.930;2023-02-26T10:56:58;100707.19;;;6.77;42.47
33625;BME280;19962;47.820;1.930;2023-02-26T10:59:25;100700.13;;;6.55;42.65
33625;BME280;19962;47.820;1.930;2023-02-26T11:01:52;100699.97;;;6.70;42.42
33625;BME280;19962;47.820;1.930;2023-02-26T11:04:21;100700.44;;;6.73;42.08
33625;BME280;19962;47.820;1.930;2023-02-26T11:06:55;100687.19;;;6.70;41.87
33625;BME280;19962;47.820;1.930;2023-02-26T11:09:30;100696.75;;;6.53;41.38
33625;BME280;19962;47.820;1.930;2023-02-26T11:12:14;100695.03;;;6.46;40.92
33625;BME280;19962;47.820;1.930;2023-02-26T11:14:42;100702.97;;;6.41;41.78
33625;BME280;19962;47.820;1.930;2023-02-26T11:19:47;100689.22;;;6.55;40.93
33625;BME280;19962;47.820;1.930;2023-02-26T11:22:15;100700.75;;;6.91;41.03
33625;BME280;19962;47.820;1.930;2023-02-26T11:24:50;100694.97;;;7.20;40.59
33625;BME280;19962;47.820;1.930;2023-02-26T11:27:26;100697.06;;;7.18;40.11
33625;BME280;19962;47.820;1.930;2023-02-26T11:30:03;100698.63;;;6.93;39.83
33625;BME280;19962;47.820;1.930;2023-02-26T11:32:32;100704.16;;;7.13;41.18
33625;BME280;19962;47.820;1.930;2023-02-26T11:34:59;100697.69;;;7.20;41.17
33625;BME280;19962;47.820;1.930;2023-02-26T11:37:33;100707.59;;;7.34;40.61
33625;BME280;19962;47.820;1.930;2023-02-26T11:40:13;100712.25;;;7.40;39.51
33625;BME280;19962;47.820;1.930;2023-02-26T11:42:57;100704.81;;;7.08;38.81
33625;BME280;19962;47.820;1.930;2023-02-26T11:45:24;100721.34;;;7.00;39.92
33625;BME280;19962;47.820;1.930;2023-02-26T11:47:58;100727.22;;;7.04;38.72
33625;BME280;19962;47.820;1.930;2023-02-26T11:50:27;100715.63;;;6.89;37.62
33625;BME280;19962;47.820;1.930;2023-02-26T11:53:05;100724.06;;;7.00;38.66
33625;BME280;19962;47.820;1.930;2023-02-26T11:55:37;100714.69;;;7.16;39.84
33625;BME280;19962;47.820;1.930;2023-02-26T11:58:19;100717.06;;;7.45;39.57
33625;BME280;19962;47.820;1.930;2023-02-26T12:00:45;100717.00;;;7.25;39.42
33625;BME280;19962;47.820;1.930;2023-02-26T12:03:17;100721.19;;;7.21;38.69
33625;BME280;19962;47.820;1.930;2023-02-26T12:05:45;100720.97;;;7.16;39.11
33625;BME280;19962;47.820;1.930;2023-02-26T12:08:32;100714.41;;;6.98;38.23
33625;BME280;19962;47.820;1.930;2023-02-26T12:21:33;100723.03;;;7.08;38.75
33625;BME280;19962;47.820;1.930;2023-02-26T12:30:07;100704.06;;;7.40;37.92
33625;BME280;19962;47.820;1.930;2023-02-26T12:32:55;100707.16;;;7.31;38.04
33625;BME280;19962;47.820;1.930;2023-02-26T12:36:07;100704.03;;;7.34;38.20
33625;BME280;19962;47.820;1.930;2023-02-26T12:39:05;100707.81;;;7.39;37.82
33625;BME280;19962;47.820;1.930;2023-02-26T12:42:09;100701.53;;;7.45;37.24
33625;BME280;19962;47.820;1.930;2023-02-26T12:48:02;100695.03;;;7.46;38.14
33625;BME280;19962;47.820;1.930;2023-02-26T13:01:52;100704.47;;;7.37;37.21
33625;BME280;19962;47.820;1.930;2023-02-26T13:12:34;100705.16;;;6.99;37.12
33625;BME280;19962;47.820;1.930;2023-02-26T13:15:17;100694.56;;;7.23;37.16
33625;BME280;19962;47.820;1.930;2023-02-26T13:21:04;100692.06;;;7.28;37.03
33625;BME280;19962;47.820;1.930;2023-02-26T13:26:31;100681.78;;;7.43;37.55
33625;BME280;19962;47.820;1.930;2023-02-26T13:31:58;100680.13;;;7.42;36.31
33625;BME280;19962;47.820;1.930;2023-02-26T13:34:56;100702.78;;;7.36;37.44
33625;BME280;19962;47.820;1.930;2023-02-26T13:37:37;100699.00;;;7.37;36.62
33625;BME280;19962;47.820;1.930;2023-02-26T13:45:30;100695.00;;;7.33;36.80
33625;BME280;19962;47.820;1.930;2023-02-26T13:51:11;100681.34;;;7.33;36.09
33625;BME280;19962;47.820;1.930;2023-02-26T13:56:11;100683.31;;;7.72;36.94
33625;BME280;19962;47.820;1.930;2023-02-26T13:58:41;100681.22;;;7.61;36.90
33625;BME280;19962;47.820;1.930;2023-02-26T14:04:05;100685.38;;;7.50;36.62
33625;BME280;19962;47.820;1.930;2023-02-26T14:06:43;100699.25;;;7.62;36.84
33625;BME280;19962;47.820;1.930;2023-02-26T14:14:29;100696.75;;;7.73;36.72
33625;BME280;19962;47.820;1.930;2023-02-26T14:19:37;100699.91;;;7.77;36.26
33625;BME280;19962;47.820;1.930;2023-02-26T14:22:32;100711.91;;;7.89;36.52
33625;BME280;19962;47.820;1.930;2023-02-26T14:27:41;100721.75;;;7.70;37.18
33625;BME280;19962;47.820;1.930;2023-02-26T14:35:39;100707.59;;;7.34;37.00
33625;BME280;19962;47.820;1.930;2023-02-26T14:38:26;100719.31;;;7.22;36.97
33625;BME280;19962;47.820;1.930;2023-02-26T14:41:21;100726.06;;;7.32;37.43
33625;BME280;19962;47.820;1.930;2023-02-26T14:43:49;100721.91;;;7.43;37.56
33625;BME280;19962;47.820;1.930;2023-02-26T14:46:19;100724.66;;;7.49;37.34
33625;BME280;19962;47.820;1.930;2023-02-26T14:48:46;100733.91;;;7.61;37.61
33625;BME280;19962;47.820;1.930;2023-02-26T15:03:07;100749.25;;;7.56;37.41
33625;BME280;19962;47.820;1.930;2023-02-26T15:05:39;100750.72;;;7.58;37.66
33625;BME280;19962;47.820;1.930;2023-02-26T15:16:35;100736.69;;;7.87;37.90
33625;BME280;19962;47.820;1.930;2023-02-26T15:19:44;100739.94;;;7.37;37.34
33625;BME280;19962;47.820;1.930;2023-02-26T15:22:37;100732.09;;;7.21;38.21
33625;BME280;19962;47.820;1.930;2023-02-26T15:25:22;100734.28;;;6.92;37.57
33625;BME280;19962;47.820;1.930;2023-02-26T15:27:50;100737.28;;;7.03;38.23
33625;BME280;19962;47.820;1.930;2023-02-26T15:30:17;100730.03;;;7.23;37.98
33625;BME280;19962;47.820;1.930;2023-02-26T15:32:43;100734.09;;;7.40;38.18
33625;BME280;19962;47.820;1.930;2023-02-26T15:35:19;100739.75;;;7.39;37.34
33625;BME280;19962;47.820;1.930;2023-02-26T15:37:52;100732.75;;;7.23;36.90
33625;BME280;19962;47.820;1.930;2023-02-26T15:40:19;100745.72;;;7.15;37.95
33625;BME280;19962;47.820;1.930;2023-02-26T15:42:49;100742.44;;;7.32;38.18
33625;BME280;19962;47.820;1.930;2023-02-26T15:45:41;100734.44;;;7.24;36.62
33625;BME280;19962;47.820;1.930;2023-02-26T15:48:33;100750.47;;;7.40;37.20
33625;BME280;19962;47.820;1.930;2023-02-26T15:51:00;100739.13;;;7.50;37.62
33625;BME280;19962;47.820;1.930;2023-02-26T15:53:35;100736.13;;;7.25;37.26
33625;BME280;19962;47.820;1.930;2023-02-26T15:56:08;100731.88;;;7.16;37.11
33625;BME280;19962;47.820;1.930;2023-02-26T15:58:40;100732.38;;;7.33;37.30
33625;BME280;19962;47.820;1.930;2023-02-26T16:01:18;100731.75;;;7.37;37.26
33625;BME280;19962;47.820;1.930;2023-02-26T16:03:45;100746.28;;;7.51;37.49
33625;BME280;19962;47.820;1.930;2023-02-26T16:07:01;100753.91;;;7.15;36.33
33625;BME280;19962;47.820;1.930;2023-02-26T16:09:17;100760.22;;;7.15;37.10
33625;BME280;19962;47.820;1.930;2023-02-26T16:11:45;100755.50;;;6.96;37.47